Time;durP1;ratioP1;P1;durP2;ratioP2;P2;SDS_P1;SDS_P2;PMS_P1;PMS_P2;Temp;Humidity;BMP_temperature;BMP_pressure;BME280_temperature;BME280_humidity;BME280_pressure;Samples;Min_cycle;Max_cycle;Signal;HPM_P1;HPM_P2
2023/01/03 00:00:09;;;;;;;5.07;1.67;;;;;;;;;;5008497;28;20056;-75
2023/01/03 00:02:35;;;;;;;4.13;1.60;;;;;;;;;;5035090;28;20080;-75
2023/01/03 00:05:02;;;;;;;4.50;1.77;;;;;;;;;;5017189;28;20052;-75
2023/01/03 00:07:33;;;;;;;5.95;1.90;;;;;;;;;;5016487;28;20095;-75
2023/01/03 00:10:18;;;;;;;3.97;1.40;;;;;;;;;;5015411;28;20057;-75
2023/01/03 00:12:44;;;;;;;5.47;1.80;;;;;;;;;;5015945;28;20041;-75
2023/01/03 00:15:13;;;;;;;4.38;1.70;;;;;;;;;;5041801;28;20052;-75
2023/01/03 00:17:39;;;;;;;3.00;1.52;;;;;;;;;;5015765;28;20053;-75
2023/01/03 00:20:06;;;;;;;3.78;1.58;;;;;;;;;;5017024;28;20061;-75
2023/01/03 00:22:33;;;;;;;6.00;1.80;;;;;;;;;;5017024;28;20045;-75
2023/01/03 00:24:59;;;;;;;5.00;1.80;;;;;;;;;;5034150;28;20100;-75
2023/01/03 00:27:26;;;;;;;3.22;1.60;;;;;;;;;;5033204;28;20773;-75
2023/01/03 00:29:52;;;;;;;3.10;1.75;;;;;;;;;;5034607;28;20045;-75
2023/01/03 00:32:18;;;;;;;2.83;1.63;;;;;;;;;;5033614;28;20077;-75
2023/01/03 00:34:46;;;;;;;6.35;1.80;;;;;;;;;;5034330;28;20104;-75
2023/01/03 00:37:13;;;;;;;4.63;1.70;;;;;;;;;;5033329;28;20045;-75
2023/01/03 00:39:39;;;;;;;4.05;1.60;;;;;;;;;;5033871;28;20092;-75
2023/01/03 00:42:05;;;;;;;5.25;1.75;;;;;;;;;;5033222;28;20480;-75
2023/01/03 00:44:32;;;;;;;4.72;1.60;;;;;;;;;;5033611;28;20041;-75
2023/01/03 00:46:58;;;;;;;5.50;2.00;;;;;;;;;;5032902;28;20045;-75
2023/01/03 00:49:24;;;;;;;8.18;2.00;;;;;;;;;;5016145;28;20096;-74
2023/01/03 00:51:52;;;;;;;4.15;1.70;;;;;;;;;;5033650;28;20057;-75
2023/01/03 00:54:19;;;;;;;5.22;1.65;;;;;;;;;;5015588;28;20060;-75
2023/01/03 00:56:46;;;;;;;6.55;1.67;;;;;;;;;;5008407;28;20394;-75
2023/01/03 00:59:13;;;;;;;3.40;1.70;;;;;;;;;;5014492;28;20478;-75
2023/01/03 01:01:44;;;;;;;3.75;1.90;;;;;;;;;;5033675;28;20046;-75
2023/01/03 01:04:11;;;;;;;3.15;1.55;;;;;;;;;;5033364;28;20048;-75
2023/01/03 01:06:39;;;;;;;3.03;1.42;;;;;;;;;;5033154;28;20512;-75
2023/01/03 01:09:06;;;;;;;4.75;1.92;;;;;;;;;;5033422;28;20041;-75
2023/01/03 01:11:33;;;;;;;4.63;1.73;;;;;;;;;;5033835;28;20041;-75
2023/01/03 01:13:59;;;;;;;3.15;1.65;;;;;;;;;;4999092;28;20049;-75
2023/01/03 01:16:26;;;;;;;3.95;1.67;;;;;;;;;;5032255;28;20037;-75
2023/01/03 01:18:53;;;;;;;4.97;1.88;;;;;;;;;;5033341;28;20132;-75
2023/01/03 01:21:21;;;;;;;3.55;1.60;;;;;;;;;;5033389;28;20056;-75
2023/01/03 01:23:47;;;;;;;2.80;1.60;;;;;;;;;;5015428;28;20111;-74
2023/01/03 01:26:14;;;;;;;7.40;1.92;;;;;;;;;;5033159;28;20029;-75
2023/01/03 01:28:40;;;;;;;4.05;1.70;;;;;;;;;;5033277;28;20053;-75
2023/01/03 01:31:07;;;;;;;4.82;1.58;;;;;;;;;;5032801;28;20045;-75
2023/01/03 01:33:34;;;;;;;4.18;1.63;;;;;;;;;;5015873;28;20096;-75
2023/01/03 01:36:07;;;;;;;3.65;1.80;;;;;;;;;;5032882;28;20041;-74
2023/01/03 01:38:34;;;;;;;5.05;1.75;;;;;;;;;;5014957;28;20485;-75
2023/01/03 01:41:00;;;;;;;5.85;1.80;;;;;;;;;;5033669;28;20049;-75
2023/01/03 01:46:11;;;;;;;3.42;2.00;;;;;;;;;;5031728;28;20095;-74
2023/01/03 01:48:37;;;;;;;4.82;1.70;;;;;;;;;;5033316;28;20437;-74
2023/01/03 01:51:03;;;;;;;6.28;2.15;;;;;;;;;;5015940;28;20041;-74
2023/01/03 01:53:31;;;;;;;4.00;1.73;;;;;;;;;;5015444;28;20056;-74
2023/01/03 01:56:10;;;;;;;3.22;2.20;;;;;;;;;;5032711;28;20075;-74
2023/01/03 01:58:37;;;;;;;6.45;2.25;;;;;;;;;;5015573;28;20128;-75
2023/01/03 02:01:04;;;;;;;8.32;2.10;;;;;;;;;;5031607;28;20045;-75
2023/01/03 02:03:30;;;;;;;4.05;1.60;;;;;;;;;;5033082;28;20045;-74
2023/01/03 02:05:58;;;;;;;6.25;1.80;;;;;;;;;;5032842;28;20041;-75
2023/01/03 02:08:25;;;;;;;4.28;1.90;;;;;;;;;;5012040;28;20054;-75
2023/01/03 02:10:59;;;;;;;5.75;1.88;;;;;;;;;;5013206;28;20505;-75
2023/01/03 02:13:40;;;;;;;5.70;1.80;;;;;;;;;;5012174;28;20084;-74
2023/01/03 02:16:11;;;;;;;4.68;1.90;;;;;;;;;;5011667;28;20049;-75
2023/01/03 02:18:37;;;;;;;7.20;1.75;;;;;;;;;;5032093;28;20065;-75
2023/01/03 02:21:10;;;;;;;4.05;1.75;;;;;;;;;;5033404;28;20048;-75
2023/01/03 02:23:36;;;;;;;5.90;1.85;;;;;;;;;;5032993;28;20498;-75
2023/01/03 02:26:21;;;;;;;4.13;1.63;;;;;;;;;;5014779;28;20129;-74
2023/01/03 02:29:02;;;;;;;9.48;2.30;;;;;;;;;;5032649;28;20061;-75
2023/01/03 02:31:38;;;;;;;7.57;1.95;;;;;;;;;;5017465;28;20120;-75
2023/01/03 02:34:04;;;;;;;;;;;;;;;;;;5033190;28;20041;-75
2023/01/03 02:36:33;;;;;;;3.53;2.23;;;;;;;;;;5032313;28;19928;-74
2023/01/03 02:39:07;;;;;;;5.65;1.98;;;;;;;;;;5032960;28;20456;-74
2023/01/03 02:41:33;;;;;;;3.58;1.80;;;;;;;;;;4999320;28;20049;-75
2023/01/03 02:44:04;;;;;;;5.72;1.75;;;;;;;;;;5032823;28;20505;-75
2023/01/03 02:46:34;;;;;;;6.88;2.10;;;;;;;;;;5031295;28;20048;-75
2023/01/03 02:49:19;;;;;;;2.17;1.60;;;;;;;;;;5014842;28;20041;-75
2023/01/03 02:51:46;;;;;;;5.03;1.63;;;;;;;;;;5015355;28;20060;-74
2023/01/03 02:54:17;;;;;;;3.78;1.60;;;;;;;;;;5033089;28;20052;-74
2023/01/03 02:56:55;;;;;;;3.63;1.70;;;;;;;;;;5005624;28;20046;-74
2023/01/03 02:59:25;;;;;;;5.63;2.10;;;;;;;;;;5005193;28;20077;-75
2023/01/03 03:01:52;;;;;;;5.47;1.70;;;;;;;;;;5015439;28;20096;-75
2023/01/03 03:04:19;;;;;;;3.05;1.80;;;;;;;;;;4999043;28;20049;-75
2023/01/03 03:06:49;;;;;;;2.85;1.48;;;;;;;;;;5003110;28;20081;-75
2023/01/03 03:09:15;;;;;;;4.40;1.83;;;;;;;;;;5020139;28;20077;-75
2023/01/03 03:14:32;;;;;;;6.35;2.03;;;;;;;;;;5020367;28;20065;-75
2023/01/03 03:17:02;;;;;;;5.45;1.58;;;;;;;;;;5036530;28;20042;-74
2023/01/03 03:25:27;;;;;;;5.13;1.70;;;;;;;;;;5047357;28;20049;-74
2023/01/03 03:30:42;;;;;;;2.80;1.80;;;;;;;;;;5035204;28;20056;-75
2023/01/03 03:33:10;;;;;;;2.92;1.70;;;;;;;;;;5034662;28;20081;-75
2023/01/03 03:35:56;;;;;;;4.90;1.98;;;;;;;;;;5035259;28;20049;-75
2023/01/03 03:38:25;;;;;;;5.05;1.92;;;;;;;;;;5035701;28;20038;-75
2023/01/03 03:46:44;;;;;;;3.95;2.08;;;;;;;;;;4956341;28;20050;-74
2023/01/03 03:51:56;;;;;;;;;;;;;;;;;;4947516;28;20055;-74
2023/01/03 03:54:24;;;;;;;3.47;2.00;;;;;;;;;;4956353;28;19922;-74
2023/01/03 03:56:54;;;;;;;5.70;2.30;;;;;;;;;;4954719;29;20377;-74
2023/01/03 03:59:21;;;;;;;6.13;2.30;;;;;;;;;;4952972;28;20143;-74
2023/01/03 04:01:48;;;;;;;4.40;2.10;;;;;;;;;;4957464;28;20047;-74
2023/01/03 04:04:22;;;;;;;6.53;2.38;;;;;;;;;;4957614;28;20079;-74
2023/01/03 04:06:51;;;;;;;5.00;2.40;;;;;;;;;;4973236;28;20058;-74
2023/01/03 04:09:17;;;;;;;3.88;2.13;;;;;;;;;;4973252;28;20059;-74
2023/01/03 04:11:43;;;;;;;5.57;2.72;;;;;;;;;;4973931;28;20047;-74
2023/01/03 04:14:09;;;;;;;6.32;2.70;;;;;;;;;;4957176;28;20050;-74
2023/01/03 04:16:36;;;;;;;3.58;2.47;;;;;;;;;;4958007;28;20586;-74
2023/01/03 04:19:02;;;;;;;6.28;2.55;;;;;;;;;;4957203;28;20047;-74
2023/01/03 04:21:28;;;;;;;3.67;2.70;;;;;;;;;;4974024;28;20047;-74
2023/01/03 04:23:54;;;;;;;6.40;2.60;;;;;;;;;;4989229;28;20050;-74
2023/01/03 04:26:21;;;;;;;7.68;3.17;;;;;;;;;;5014608;28;20396;-74
2023/01/03 04:28:47;;;;;;;5.57;2.50;;;;;;;;;;4997381;28;20089;-74
2023/01/03 04:31:13;;;;;;;6.55;3.33;;;;;;;;;;4997382;28;20082;-74
2023/01/03 04:33:39;;;;;;;6.93;2.88;;;;;;;;;;4994747;28;20053;-74
2023/01/03 04:36:05;;;;;;;7.30;3.25;;;;;;;;;;5014949;28;20046;-74
2023/01/03 04:38:31;;;;;;;4.13;2.50;;;;;;;;;;5013546;28;20045;-74
2023/01/03 04:41:03;;;;;;;5.07;2.72;;;;;;;;;;4982955;28;20069;-74
2023/01/03 04:46:14;;;;;;;6.03;2.60;;;;;;;;;;5014716;28;20054;-74
2023/01/03 04:48:40;;;;;;;4.90;2.70;;;;;;;;;;5014157;28;20042;-74
2023/01/03 04:51:06;;;;;;;7.03;2.67;;;;;;;;;;4996995;28;20554;-74
2023/01/03 04:53:32;;;;;;;5.72;2.92;;;;;;;;;;5010250;28;20951;-74
2023/01/03 04:55:58;;;;;;;4.63;2.78;;;;;;;;;;5012585;28;20042;-74
2023/01/03 04:58:24;;;;;;;7.32;2.67;;;;;;;;;;5014352;28;20072;-74
2023/01/03 05:00:50;;;;;;;4.60;2.72;;;;;;;;;;5014228;28;20045;-74
2023/01/03 05:03:16;;;;;;;6.30;2.85;;;;;;;;;;4995758;28;20474;-74
2023/01/03 05:05:43;;;;;;;4.93;3.10;;;;;;;;;;5014258;28;20060;-74
2023/01/03 05:08:10;;;;;;;6.72;3.40;;;;;;;;;;5014187;28;20490;-74
2023/01/03 05:10:39;;;;;;;5.07;3.17;;;;;;;;;;4995287;28;20140;-74
2023/01/03 05:13:05;;;;;;;5.95;3.40;;;;;;;;;;5012991;28;20442;-74
2023/01/03 05:15:34;;;;;;;10.35;3.60;;;;;;;;;;5014101;28;20056;-74
2023/01/03 05:18:00;;;;;;;9.05;3.28;;;;;;;;;;5013136;28;20556;-75
2023/01/03 05:26:05;;;;;;;5.70;3.40;;;;;;;;;;4995769;28;20049;-74
2023/01/03 05:28:31;;;;;;;6.72;3.70;;;;;;;;;;5013189;28;20050;-74
2023/01/03 05:30:58;;;;;;;8.65;3.90;;;;;;;;;;5014132;28;20069;-74
2023/01/03 05:33:24;;;;;;;6.00;3.33;;;;;;;;;;4979669;28;20096;-74
2023/01/03 05:35:50;;;;;;;7.45;3.58;;;;;;;;;;4994554;28;20045;-74
2023/01/03 05:38:16;;;;;;;7.20;3.90;;;;;;;;;;4995563;28;20045;-74
2023/01/03 05:40:43;;;;;;;7.40;4.18;;;;;;;;;;4974925;28;20475;-74
2023/01/03 05:43:09;;;;;;;7.68;3.90;;;;;;;;;;4994222;28;20046;-75
2023/01/03 05:45:38;;;;;;;7.07;4.07;;;;;;;;;;4994206;28;20094;-74
2023/01/03 05:48:06;;;;;;;7.00;3.78;;;;;;;;;;4995409;28;20104;-74
2023/01/03 05:50:32;;;;;;;6.75;4.03;;;;;;;;;;5013587;28;20053;-75
2023/01/03 05:52:58;;;;;;;8.38;4.05;;;;;;;;;;5012627;28;20052;-75
2023/01/03 05:55:24;;;;;;;6.43;4.10;;;;;;;;;;5013879;28;20049;-75
2023/01/03 05:57:51;;;;;;;9.38;4.60;;;;;;;;;;5012670;28;20033;-74
2023/01/03 06:00:17;;;;;;;6.60;4.00;;;;;;;;;;5013483;28;20092;-75
2023/01/03 06:02:43;;;;;;;8.07;4.03;;;;;;;;;;4996151;28;20475;-75
2023/01/03 06:05:09;;;;;;;5.63;4.03;;;;;;;;;;4995464;28;20045;-74
2023/01/03 06:07:36;;;;;;;7.32;3.95;;;;;;;;;;5011686;28;20096;-75
2023/01/03 06:10:03;;;;;;;8.27;5.45;;;;;;;;;;4995692;28;20487;-75
2023/01/03 06:12:29;;;;;;;7.65;4.38;;;;;;;;;;4995776;28;20133;-75
2023/01/03 06:14:55;;;;;;;5.80;5.00;;;;;;;;;;4996076;28;20403;-75
2023/01/03 06:20:07;;;;;;;8.45;4.93;;;;;;;;;;5033325;28;20056;-75
2023/01/03 06:22:33;;;;;;;8.60;4.38;;;;;;;;;;5036346;28;20046;-75
2023/01/03 06:24:59;;;;;;;7.22;4.68;;;;;;;;;;5038749;28;20120;-75
2023/01/03 06:27:25;;;;;;;9.43;4.57;;;;;;;;;;5035190;28;20499;-75
2023/01/03 06:29:51;;;;;;;7.35;4.50;;;;;;;;;;5016103;28;20367;-75
2023/01/03 06:32:17;;;;;;;7.88;5.00;;;;;;;;;;5015659;28;20414;-75
2023/01/03 06:34:43;;;;;;;7.70;4.50;;;;;;;;;;5003745;28;20052;-75
2023/01/03 06:37:09;;;;;;;7.53;5.00;;;;;;;;;;5018982;28;20119;-75
2023/01/03 06:39:35;;;;;;;9.75;5.15;;;;;;;;;;5018957;28;20041;-75
2023/01/03 06:42:38;;;;;;;9.77;5.57;;;;;;;;;;5018849;28;20047;-75
2023/01/03 06:53:10;;;;;;;9.07;5.45;;;;;;;;;;5036036;28;20056;-75
2023/01/03 06:53:13;;;;;;;11.45;6.28;;;;;;;;;;5035184;28;20057;-75
2023/01/03 06:55:43;;;;;;;11.57;6.38;;;;;;;;;;5018614;28;20456;-74
2023/01/03 06:58:09;;;;;;;11.95;6.63;;;;;;;;;;5018126;28;20045;-74
2023/01/03 07:00:36;;;;;;;12.65;6.97;;;;;;;;;;5018412;28;20045;-74
2023/01/03 07:03:02;;;;;;;15.60;7.65;;;;;;;;;;5036678;28;20041;-75
2023/01/03 07:05:28;;;;;;;17.13;8.88;;;;;;;;;;5036713;28;20041;-74
2023/01/03 07:07:55;;;;;;;18.23;8.50;;;;;;;;;;5017535;28;20516;-74
2023/01/03 07:10:21;;;;;;;14.25;8.00;;;;;;;;;;5018834;28;20128;-75
2023/01/03 07:15:31;;;;;;;14.77;8.57;;;;;;;;;;5036006;28;20081;-75
2023/01/03 07:17:57;;;;;;;16.00;8.82;;;;;;;;;;5034593;28;20054;-76
2023/01/03 07:20:24;;;;;;;13.98;9.30;;;;;;;;;;5035831;28;20096;-75
2023/01/03 07:22:50;;;;;;;17.50;8.82;;;;;;;;;;5034604;28;20094;-75
2023/01/03 07:25:16;;;;;;;15.65;9.55;;;;;;;;;;5035864;28;20049;-75
2023/01/03 07:27:42;;;;;;;16.67;9.68;;;;;;;;;;5017282;28;20379;-75
2023/01/03 07:30:08;;;;;;;18.35;10.70;;;;;;;;;;5017633;28;20080;-75
2023/01/03 07:32:34;;;;;;;22.20;11.68;;;;;;;;;;5018210;28;20065;-78
2023/01/03 07:35:01;;;;;;;24.83;11.57;;;;;;;;;;5017831;28;20128;-76
2023/01/03 07:37:27;;;;;;;18.30;10.68;;;;;;;;;;5017209;28;20049;-75
2023/01/03 07:39:53;;;;;;;21.08;11.75;;;;;;;;;;5017620;28;20049;-76
2023/01/03 07:45:07;;;;;;;20.95;12.15;;;;;;;;;;5017673;28;20054;-76
2023/01/03 07:47:33;;;;;;;24.00;12.68;;;;;;;;;;5035834;28;20045;-76
2023/01/03 07:49:59;;;;;;;23.65;12.55;;;;;;;;;;5018114;28;20120;-76
2023/01/03 07:52:26;;;;;;;21.40;12.05;;;;;;;;;;5016838;28;20084;-76
2023/01/03 07:54:53;;;;;;;20.63;13.45;;;;;;;;;;5034562;28;20473;-76
2023/01/03 07:57:19;;;;;;;21.45;12.45;;;;;;;;;;5034362;28;20837;-75
2023/01/03 07:59:45;;;;;;;22.15;13.32;;;;;;;;;;5000779;28;20425;-76
2023/01/03 08:02:11;;;;;;;25.67;14.02;;;;;;;;;;5033499;28;20468;-76
2023/01/03 08:04:37;;;;;;;26.02;14.10;;;;;;;;;;5017389;28;20053;-76
2023/01/03 08:07:05;;;;;;;25.58;14.07;;;;;;;;;;5035519;28;20048;-75
2023/01/03 08:15:04;;;;;;;25.00;13.32;;;;;;;;;;5018098;28;20053;-77
2023/01/03 08:17:30;;;;;;;19.27;11.40;;;;;;;;;;5034399;28;20057;-75
2023/01/03 08:19:56;;;;;;;24.73;12.68;;;;;;;;;;5033542;28;20145;-76
2023/01/03 08:22:22;;;;;;;23.58;13.52;;;;;;;;;;5031969;28;20486;-76
2023/01/03 08:24:48;;;;;;;25.80;14.05;;;;;;;;;;5017441;28;20478;-76
2023/01/03 08:27:20;;;;;;;25.08;13.50;;;;;;;;;;5017594;28;20046;-76
2023/01/03 08:29:49;;;;;;;28.60;14.20;;;;;;;;;;5016997;28;20433;-75
2023/01/03 08:32:18;;;;;;;23.98;13.15;;;;;;;;;;5035336;28;20041;-75
2023/01/03 08:34:47;;;;;;;22.80;13.80;;;;;;;;;;5017833;28;20045;-75
2023/01/03 08:37:14;;;;;;;25.27;14.13;;;;;;;;;;5018072;28;20525;-76
2023/01/03 08:39:49;;;;;;;20.45;12.57;;;;;;;;;;5017151;28;20045;-77
2023/01/03 08:42:19;;;;;;;21.42;12.27;;;;;;;;;;5027617;28;20065;-75
2023/01/03 08:44:46;;;;;;;21.92;12.38;;;;;;;;;;5035876;28;20456;-75
2023/01/03 08:47:13;;;;;;;23.13;13.77;;;;;;;;;;5033787;28;20394;-75
2023/01/03 08:49:39;;;;;;;25.30;13.18;;;;;;;;;;5035044;28;20049;-75
2023/01/03 08:52:05;;;;;;;24.23;13.93;;;;;;;;;;5033356;28;20048;-75
2023/01/03 08:54:31;;;;;;;25.75;14.27;;;;;;;;;;5034697;28;20037;-75
2023/01/03 08:56:57;;;;;;;25.02;14.52;;;;;;;;;;5026452;28;20088;-75
2023/01/03 08:59:23;;;;;;;26.88;13.95;;;;;;;;;;5024627;28;20556;-76
2023/01/03 09:01:49;;;;;;;25.35;14.80;;;;;;;;;;5027437;28;20042;-75
2023/01/03 09:04:15;;;;;;;25.35;14.07;;;;;;;;;;5026434;28;20042;-76
2023/01/03 09:06:41;;;;;;;27.15;15.13;;;;;;;;;;5033922;28;20105;-76
2023/01/03 09:09:08;;;;;;;29.35;14.02;;;;;;;;;;5028451;28;20521;-76
2023/01/03 09:11:34;;;;;;;28.30;15.45;;;;;;;;;;5029238;28;20033;-76
2023/01/03 09:14:00;;;;;;;22.30;14.07;;;;;;;;;;5011120;28;20053;-76
2023/01/03 09:16:26;;;;;;;22.35;14.02;;;;;;;;;;5031557;28;20069;-76
2023/01/03 09:18:52;;;;;;;26.45;14.95;;;;;;;;;;5033897;28;20045;-76
2023/01/03 09:21:18;;;;;;;25.90;15.77;;;;;;;;;;5028903;28;20404;-76
2023/01/03 09:23:44;;;;;;;22.83;14.77;;;;;;;;;;5034806;28;20049;-76
2023/01/03 09:26:10;;;;;;;25.80;15.15;;;;;;;;;;5017043;28;20056;-76
2023/01/03 09:28:37;;;;;;;29.20;15.60;;;;;;;;;;5034486;28;20045;-76
2023/01/03 09:31:03;;;;;;;25.33;15.50;;;;;;;;;;5036960;28;20073;-76
2023/01/03 09:33:29;;;;;;;26.17;15.88;;;;;;;;;;5003826;28;20054;-76
2023/01/03 09:35:55;;;;;;;27.23;15.75;;;;;;;;;;5035410;28;20044;-76
2023/01/03 09:38:24;;;;;;;27.50;15.65;;;;;;;;;;5037695;28;20049;-76
2023/01/03 09:41:17;;;;;;;28.27;16.90;;;;;;;;;;5038225;28;20045;-76
2023/01/03 09:43:45;;;;;;;29.75;16.80;;;;;;;;;;5022243;28;20081;-76
2023/01/03 09:46:17;;;;;;;29.83;15.70;;;;;;;;;;5025736;28;20053;-76
2023/01/03 09:48:43;;;;;;;27.70;15.95;;;;;;;;;;5027654;28;20550;-76
2023/01/03 10:05:24;;;;;;;24.70;14.00;;;;;;;;;;5034679;28;20056;-76
2023/01/03 10:08:00;;;;;;;24.95;14.43;;;;;;;;;;5037100;28;20187;-76
2023/01/03 10:10:43;;;;;;;24.60;13.95;;;;;;;;;;5030010;28;20065;-76
2023/01/03 10:13:30;;;;;;;26.98;15.07;;;;;;;;;;5017927;28;20048;-77
2023/01/03 10:15:57;;;;;;;26.08;15.90;;;;;;;;;;5037931;28;20076;-77
2023/01/03 10:18:40;;;;;;;27.60;16.10;;;;;;;;;;5026216;28;20057;-77
2023/01/03 10:21:08;;;;;;;24.23;15.02;;;;;;;;;;4993036;28;20077;-76
2023/01/03 10:23:35;;;;;;;28.52;15.60;;;;;;;;;;5018196;28;20046;-76
2023/01/03 10:26:01;;;;;;;26.00;14.60;;;;;;;;;;5018676;28;20042;-76
2023/01/03 10:28:35;;;;;;;24.10;14.43;;;;;;;;;;5017790;28;20042;-77
2023/01/03 10:31:01;;;;;;;27.65;15.02;;;;;;;;;;5017839;28;20129;-77
2023/01/03 10:33:30;;;;;;;25.70;15.05;;;;;;;;;;5018014;28;20301;-78
2023/01/03 10:35:57;;;;;;;30.92;15.90;;;;;;;;;;5018149;28;20045;-78
2023/01/03 10:38:24;;;;;;;30.75;15.52;;;;;;;;;;5017745;28;20049;-77
2023/01/03 10:40:52;;;;;;;27.23;14.10;;;;;;;;;;5009743;28;20082;-78
2023/01/03 10:43:20;;;;;;;28.20;15.43;;;;;;;;;;4986051;28;20576;-80
2023/01/03 10:45:50;;;;;;;29.05;14.20;;;;;;;;;;5000037;28;20100;-80
2023/01/03 10:48:16;;;;;;;30.60;16.17;;;;;;;;;;5017915;28;20069;-77
2023/01/03 10:50:42;;;;;;;33.20;16.10;;;;;;;;;;5017999;28;20049;-77
2023/01/03 10:53:10;;;;;;;44.13;18.05;;;;;;;;;;5023201;28;20099;-77
2023/01/03 10:55:43;;;;;;;39.78;17.92;;;;;;;;;;5018850;28;20073;-77
2023/01/03 10:58:17;;;;;;;41.28;18.67;;;;;;;;;;5018305;28;20041;-77
2023/01/03 11:00:43;;;;;;;40.33;19.67;;;;;;;;;;5017859;28;20382;-77
2023/01/03 11:03:17;;;;;;;47.17;20.73;;;;;;;;;;5017608;28;20121;-77
2023/01/03 11:05:44;;;;;;;42.85;18.33;;;;;;;;;;4999609;28;20050;-76
2023/01/03 11:08:33;;;;;;;49.03;19.65;;;;;;;;;;5013484;28;20125;-77
2023/01/03 11:11:00;;;;;;;49.30;21.15;;;;;;;;;;5003277;28;20060;-77
2023/01/03 11:13:39;;;;;;;45.15;19.73;;;;;;;;;;4999533;28;20115;-77
2023/01/03 11:16:16;;;;;;;47.58;20.55;;;;;;;;;;5001969;28;20046;-77
2023/01/03 11:19:05;;;;;;;48.22;22.98;;;;;;;;;;5020323;28;20517;-77
2023/01/03 11:21:40;;;;;;;48.42;22.50;;;;;;;;;;5038314;28;20220;-77
2023/01/03 11:24:15;;;;;;;49.90;23.58;;;;;;;;;;5038188;28;20050;-77
2023/01/03 11:26:44;;;;;;;45.88;22.52;;;;;;;;;;5037242;28;20044;-77
2023/01/03 11:29:19;;;;;;;48.10;23.17;;;;;;;;;;5038955;28;20049;-77
2023/01/03 11:31:48;;;;;;;48.13;22.08;;;;;;;;;;5031747;28;20110;-78
2023/01/03 11:34:26;;;;;;;50.58;22.15;;;;;;;;;;5027580;28;20056;-77
2023/01/03 11:37:06;;;;;;;50.55;24.17;;;;;;;;;;5015043;28;20510;-77
2023/01/03 11:39:51;;;;;;;56.53;24.08;;;;;;;;;;5037160;28;20049;-77
2023/01/03 11:42:24;;;;;;;55.45;24.70;;;;;;;;;;5037073;28;20069;-77
2023/01/03 11:44:59;;;;;;;51.75;23.42;;;;;;;;;;5033599;28;21909;-77
2023/01/03 11:47:25;;;;;;;57.50;24.55;;;;;;;;;;5038179;28;20041;-77
2023/01/03 11:50:10;;;;;;;58.67;26.70;;;;;;;;;;5038879;28;20063;-77
2023/01/03 11:52:42;;;;;;;55.45;25.13;;;;;;;;;;5020192;28;20124;-77
2023/01/03 11:55:26;;;;;;;64.38;27.80;;;;;;;;;;5037646;28;20045;-77
2023/01/03 11:58:10;;;;;;;58.45;26.60;;;;;;;;;;5015798;28;20049;-77
2023/01/03 12:00:37;;;;;;;60.05;26.45;;;;;;;;;;5035773;28;20481;-76
2023/01/03 12:03:21;;;;;;;60.58;27.17;;;;;;;;;;5037302;28;20053;-76
2023/01/03 12:05:50;;;;;;;59.47;26.85;;;;;;;;;;5037063;28;20537;-76
2023/01/03 12:08:28;;;;;;;64.68;29.10;;;;;;;;;;5037905;28;20084;-76
2023/01/03 12:11:13;;;;;;;57.05;25.83;;;;;;;;;;5045896;28;20040;-76
2023/01/03 12:13:42;;;;;;;65.60;27.13;;;;;;;;;;5039555;28;20045;-76
2023/01/03 12:16:11;;;;;;;61.30;28.52;;;;;;;;;;5038404;28;20471;-76
2023/01/03 12:18:41;;;;;;;61.60;28.15;;;;;;;;;;5037661;28;20134;-76
2023/01/03 12:21:14;;;;;;;60.70;28.80;;;;;;;;;;5038232;28;20045;-77
2023/01/03 12:23:58;;;;;;;68.30;27.73;;;;;;;;;;5037003;28;20053;-77
2023/01/03 12:26:25;;;;;;;63.70;29.70;;;;;;;;;;5038334;28;20041;-77
2023/01/03 12:29:04;;;;;;;69.70;31.17;;;;;;;;;;5037189;28;20050;-77
2023/01/03 12:31:39;;;;;;;65.15;29.35;;;;;;;;;;5038411;28;20131;-77
2023/01/03 12:34:14;;;;;;;66.53;29.45;;;;;;;;;;5039274;28;20042;-77
2023/01/03 12:36:48;;;;;;;64.13;29.00;;;;;;;;;;5038422;28;20072;-76
2023/01/03 12:39:17;;;;;;;66.70;28.90;;;;;;;;;;5026906;28;20050;-76
2023/01/03 12:41:43;;;;;;;59.28;29.00;;;;;;;;;;5020590;28;20209;-77
2023/01/03 12:44:12;;;;;;;66.82;30.25;;;;;;;;;;5035144;28;20080;-77
2023/01/03 12:46:43;;;;;;;64.50;29.17;;;;;;;;;;5038162;28;20047;-77
2023/01/03 12:49:15;;;;;;;66.53;29.67;;;;;;;;;;5037214;28;20049;-77
2023/01/03 12:51:41;;;;;;;65.68;29.67;;;;;;;;;;5037224;28;20041;-77
2023/01/03 12:54:13;;;;;;;64.63;29.88;;;;;;;;;;5038731;28;20042;-77
2023/01/03 12:56:58;;;;;;;63.53;29.23;;;;;;;;;;5019385;28;20084;-77
2023/01/03 12:59:46;;;;;;;60.40;29.60;;;;;;;;;;5038929;28;20123;-77
2023/01/03 13:02:31;;;;;;;58.97;28.95;;;;;;;;;;5022045;28;20037;-77
2023/01/03 13:05:05;;;;;;;59.13;28.33;;;;;;;;;;5021968;28;20042;-77
2023/01/03 13:07:33;;;;;;;56.20;28.33;;;;;;;;;;5005675;28;20073;-77
2023/01/03 13:10:04;;;;;;;58.08;26.75;;;;;;;;;;5031501;28;20052;-78
2023/01/03 13:12:33;;;;;;;57.25;29.02;;;;;;;;;;5019851;28;20057;-77
2023/01/03 13:15:02;;;;;;;58.30;26.73;;;;;;;;;;5034466;28;20116;-76
2023/01/03 13:17:30;;;;;;;55.15;28.20;;;;;;;;;;5028775;28;20049;-76
2023/01/03 13:19:57;;;;;;;54.10;27.75;;;;;;;;;;5012224;28;20046;-76
2023/01/03 13:22:33;;;;;;;54.58;24.98;;;;;;;;;;5012923;28;20076;-77
2023/01/03 13:25:18;;;;;;;50.80;25.90;;;;;;;;;;5013881;28;20112;-77
2023/01/03 13:27:50;;;;;;;55.35;26.45;;;;;;;;;;5007280;28;20046;-76
2023/01/03 13:30:23;;;;;;;50.08;23.63;;;;;;;;;;5013209;28;20042;-77
2023/01/03 13:32:52;;;;;;;45.47;23.70;;;;;;;;;;5013924;28;20073;-77
2023/01/03 13:35:28;;;;;;;43.17;22.88;;;;;;;;;;4996089;28;20074;-77
2023/01/03 13:37:54;;;;;;;46.50;24.27;;;;;;;;;;5012627;28;20410;-77
2023/01/03 13:40:23;;;;;;;48.78;25.60;;;;;;;;;;5012902;28;20577;-77
2023/01/03 13:43:00;;;;;;;47.72;24.40;;;;;;;;;;5013892;28;20520;-76
2023/01/03 13:45:29;;;;;;;53.28;26.35;;;;;;;;;;5004751;28;20113;-76
2023/01/03 13:47:55;;;;;;;50.15;24.83;;;;;;;;;;4996146;28;20506;-76
2023/01/03 13:50:22;;;;;;;47.92;23.55;;;;;;;;;;4995714;28;20046;-76
2023/01/03 13:52:59;;;;;;;43.55;22.73;;;;;;;;;;5008225;28;20125;-77
2023/01/03 13:55:33;;;;;;;42.25;22.90;;;;;;;;;;5013161;28;20101;-76
2023/01/03 13:58:00;;;;;;;42.83;21.05;;;;;;;;;;4995600;28;20121;-77
2023/01/03 14:00:26;;;;;;;46.78;22.67;;;;;;;;;;5012760;28;20041;-77
2023/01/03 14:03:10;;;;;;;45.25;21.55;;;;;;;;;;5013130;28;20100;-77
2023/01/03 14:05:53;;;;;;;48.00;23.30;;;;;;;;;;5005414;28;20049;-76
2023/01/03 14:08:37;;;;;;;47.17;23.23;;;;;;;;;;4995922;28;20046;-76
2023/01/03 14:11:16;;;;;;;48.47;22.70;;;;;;;;;;5012193;28;20049;-76
2023/01/03 14:13:42;;;;;;;50.67;23.70;;;;;;;;;;4999033;28;20046;-76
2023/01/03 14:16:22;;;;;;;47.42;21.63;;;;;;;;;;5012946;28;20093;-77
2023/01/03 14:19:06;;;;;;;48.40;23.77;;;;;;;;;;5027589;28;20203;-77
2023/01/03 14:21:56;;;;;;;50.85;23.70;;;;;;;;;;5014983;28;20050;-76
2023/01/03 14:24:32;;;;;;;41.90;22.33;;;;;;;;;;5013578;28;20050;-76
2023/01/03 14:26:58;;;;;;;;;;;;;;;;;;5028576;28;20045;-77
2023/01/03 14:29:25;;;;;;;47.87;22.87;;;;;;;;;;5032224;28;19921;-76
2023/01/03 14:31:54;;;;;;;42.63;22.33;;;;;;;;;;5004474;28;20405;-76
2023/01/03 14:34:29;;;;;;;49.17;22.60;;;;;;;;;;5032742;28;20566;-76
2023/01/03 14:37:02;;;;;;;48.47;21.98;;;;;;;;;;5025722;28;20050;-76
2023/01/03 14:39:31;;;;;;;44.15;22.60;;;;;;;;;;5032577;28;20497;-77
2023/01/03 14:42:01;;;;;;;45.55;22.85;;;;;;;;;;5014171;28;20049;-76
2023/01/03 14:44:28;;;;;;;51.53;22.27;;;;;;;;;;5035024;28;20201;-76
2023/01/03 14:47:04;;;;;;;47.30;26.73;;;;;;;;;;5032320;28;20034;-76
2023/01/03 14:49:30;;;;;;;;;;;;;;;;;;5019535;28;20045;-76
2023/01/03 14:51:59;;;;;;;54.92;28.52;;;;;;;;;;5031978;28;19928;-76
2023/01/03 14:54:26;;;;;;;50.25;25.70;;;;;;;;;;5036785;28;20059;-76
2023/01/03 14:56:54;;;;;;;49.83;25.92;;;;;;;;;;5036332;28;20073;-76
2023/01/03 14:59:21;;;;;;;56.33;27.48;;;;;;;;;;5019341;28;20053;-76
2023/01/03 15:01:47;;;;;;;44.25;23.30;;;;;;;;;;5035737;28;20049;-77
2023/01/03 15:04:14;;;;;;;44.08;21.38;;;;;;;;;;5036140;28;20037;-77
2023/01/03 15:06:54;;;;;;;45.88;22.98;;;;;;;;;;5036010;28;20051;-76
2023/01/03 15:09:21;;;;;;;43.00;23.35;;;;;;;;;;5023222;28;20120;-76
2023/01/03 15:11:55;;;;;;;44.03;21.88;;;;;;;;;;5035311;28;20037;-76
2023/01/03 15:14:24;;;;;;;45.72;21.35;;;;;;;;;;5035384;28;20040;-76
2023/01/03 15:16:51;;;;;;;41.05;20.52;;;;;;;;;;5035146;28;20042;-76
2023/01/03 15:19:25;;;;;;;39.05;19.90;;;;;;;;;;5034950;28;20046;-76
2023/01/03 15:22:05;;;;;;;38.25;20.35;;;;;;;;;;5035246;28;20038;-76
2023/01/03 15:24:32;;;;;;;35.90;20.98;;;;;;;;;;5034615;28;20049;-76
2023/01/03 15:26:58;;;;;;;38.42;22.15;;;;;;;;;;5028535;28;20502;-76
2023/01/03 15:29:27;;;;;;;40.80;19.90;;;;;;;;;;5026217;28;20042;-76
2023/01/03 15:31:53;;;;;;;38.63;18.88;;;;;;;;;;5033536;28;20042;-76
2023/01/03 15:34:25;;;;;;;38.30;19.60;;;;;;;;;;5035661;28;20091;-76
2023/01/03 15:36:54;;;;;;;34.20;18.73;;;;;;;;;;5017239;28;20049;-76
2023/01/03 15:39:21;;;;;;;35.17;18.90;;;;;;;;;;5000831;28;20090;-76
2023/01/03 15:44:33;;;;;;;34.88;18.08;;;;;;;;;;5033020;28;20129;-76
2023/01/03 15:47:05;;;;;;;37.33;18.38;;;;;;;;;;5033713;28;20556;-76
2023/01/03 15:49:36;;;;;;;34.00;17.70;;;;;;;;;;5029884;28;20046;-76
2023/01/03 15:52:02;;;;;;;29.13;16.92;;;;;;;;;;5028367;28;20038;-76